sensor_id;sensor_type;location;lat;lon;timestamp;temperature;humidity
736;DHT22;352;48.626;9.238;2022-10-22T00:01:25;15.70;99.90
736;DHT22;352;48.626;9.238;2022-10-22T00:03:54;15.70;99.90
736;DHT22;352;48.626;9.238;2022-10-22T00:06:22;15.70;99.90
736;DHT22;352;48.626;9.238;2022-10-22T00:08:52;15.70;99.90
736;DHT22;352;48.626;9.238;2022-10-22T00:11:19;15.70;99.90
736;DHT22;352;48.626;9.238;2022-10-22T00:13:46;15.60;99.90
736;DHT22;352;48.626;9.238;2022-10-22T00:16:13;15.50;99.90
736;DHT22;352;48.626;9.238;2022-10-22T00:18:40;15.50;99.90
736;DHT22;352;48.626;9.238;2022-10-22T00:21:07;15.60;99.90
736;DHT22;352;48.626;9.238;2022-10-22T00:23:34;15.50;99.90
736;DHT22;352;48.626;9.238;2022-10-22T00:26:02;15.50;99.90
736;DHT22;352;48.626;9.238;2022-10-22T00:28:29;15.50;99.90
736;DHT22;352;48.626;9.238;2022-10-22T00:30:56;15.40;99.90
736;DHT22;352;48.626;9.238;2022-10-22T00:33:23;15.40;99.90
736;DHT22;352;48.626;9.238;2022-10-22T00:35:50;15.40;99.90
736;DHT22;352;48.626;9.238;2022-10-22T00:38:17;15.40;99.90
736;DHT22;352;48.626;9.238;2022-10-22T00:40:44;15.40;99.90
736;DHT22;352;48.626;9.238;2022-10-22T00:43:13;15.40;99.90
736;DHT22;352;48.626;9.238;2022-10-22T00:45:40;15.40;99.90
736;DHT22;352;48.626;9.238;2022-10-22T00:48:09;15.30;99.90
736;DHT22;352;48.626;9.238;2022-10-22T00:50:40;15.30;99.90
736;DHT22;352;48.626;9.238;2022-10-22T00:53:11;15.30;99.90
736;DHT22;352;48.626;9.238;2022-10-22T00:55:40;15.30;99.90
736;DHT22;352;48.626;9.238;2022-10-22T00:58:07;15.30;99.90
736;DHT22;352;48.626;9.238;2022-10-22T01:00:35;15.30;99.90
736;DHT22;352;48.626;9.238;2022-10-22T01:03:02;15.30;99.90
736;DHT22;352;48.626;9.238;2022-10-22T01:05:41;15.30;99.90
736;DHT22;352;48.626;9.238;2022-10-22T01:08:13;15.30;99.90
736;DHT22;352;48.626;9.238;2022-10-22T01:10:53;15.30;99.90
736;DHT22;352;48.626;9.238;2022-10-22T01:13:30;15.20;99.90
736;DHT22;352;48.626;9.238;2022-10-22T01:16:05;15.30;99.90
736;DHT22;352;48.626;9.238;2022-10-22T01:18:39;15.30;99.90
736;DHT22;352;48.626;9.238;2022-10-22T01:21:17;15.20;99.90
736;DHT22;352;48.626;9.238;2022-10-22T01:24:11;15.20;99.90
736;DHT22;352;48.626;9.238;2022-10-22T01:26:56;15.20;99.90
736;DHT22;352;48.626;9.238;2022-10-22T01:29:29;15.20;99.90
736;DHT22;352;48.626;9.238;2022-10-22T01:32:00;15.20;99.90
736;DHT22;352;48.626;9.238;2022-10-22T01:34:28;15.20;99.90
736;DHT22;352;48.626;9.238;2022-10-22T01:36:56;15.20;99.90
736;DHT22;352;48.626;9.238;2022-10-22T01:39:24;15.20;99.90
736;DHT22;352;48.626;9.238;2022-10-22T01:41:53;15.20;99.90
736;DHT22;352;48.626;9.238;2022-10-22T01:44:29;15.10;99.90
736;DHT22;352;48.626;9.238;2022-10-22T01:47:05;15.10;99.90
736;DHT22;352;48.626;9.238;2022-10-22T01:52:29;15.00;99.90
736;DHT22;352;48.626;9.238;2022-10-22T01:55:05;15.00;99.90
736;DHT22;352;48.626;9.238;2022-10-22T01:57:41;15.00;99.90
736;DHT22;352;48.626;9.238;2022-10-22T02:00:12;14.90;99.90
736;DHT22;352;48.626;9.238;2022-10-22T02:02:44;14.80;99.90
736;DHT22;352;48.626;9.238;2022-10-22T02:05:18;14.80;99.90
736;DHT22;352;48.626;9.238;2022-10-22T02:07:49;14.70;99.90
736;DHT22;352;48.626;9.238;2022-10-22T02:10:18;14.70;99.90
736;DHT22;352;48.626;9.238;2022-10-22T02:12:49;14.80;99.90
736;DHT22;352;48.626;9.238;2022-10-22T02:15:20;14.80;99.90
736;DHT22;352;48.626;9.238;2022-10-22T02:17:47;14.80;99.90
736;DHT22;352;48.626;9.238;2022-10-22T02:20:17;14.80;99.90
736;DHT22;352;48.626;9.238;2022-10-22T02:22:45;14.80;99.90
736;DHT22;352;48.626;9.238;2022-10-22T02:25:13;14.80;99.90
736;DHT22;352;48.626;9.238;2022-10-22T02:27:42;14.80;99.90
736;DHT22;352;48.626;9.238;2022-10-22T02:30:11;14.80;99.90
736;DHT22;352;48.626;9.238;2022-10-22T02:32:43;14.80;99.90
736;DHT22;352;48.626;9.238;2022-10-22T02:35:16;14.80;99.90
736;DHT22;352;48.626;9.238;2022-10-22T02:37:44;14.80;99.90
736;DHT22;352;48.626;9.238;2022-10-22T02:40:11;14.80;99.90
736;DHT22;352;48.626;9.238;2022-10-22T02:42:39;14.80;99.90
736;DHT22;352;48.626;9.238;2022-10-22T02:45:08;14.80;99.90
736;DHT22;352;48.626;9.238;2022-10-22T02:47:35;14.90;99.90
736;DHT22;352;48.626;9.238;2022-10-22T02:50:04;14.80;99.90
736;DHT22;352;48.626;9.238;2022-10-22T02:52:31;14.80;99.90
736;DHT22;352;48.626;9.238;2022-10-22T02:54:58;14.80;99.90
736;DHT22;352;48.626;9.238;2022-10-22T02:57:24;14.90;99.90
736;DHT22;352;48.626;9.238;2022-10-22T02:59:51;14.90;99.90
736;DHT22;352;48.626;9.238;2022-10-22T03:02:18;14.80;99.90
736;DHT22;352;48.626;9.238;2022-10-22T03:04:45;14.90;99.90
736;DHT22;352;48.626;9.238;2022-10-22T03:07:13;14.90;99.90
736;DHT22;352;48.626;9.238;2022-10-22T03:09:39;14.80;99.90
736;DHT22;352;48.626;9.238;2022-10-22T03:12:06;14.80;99.90
736;DHT22;352;48.626;9.238;2022-10-22T03:14:33;14.80;99.90
736;DHT22;352;48.626;9.238;2022-10-22T03:17:01;14.80;99.90
736;DHT22;352;48.626;9.238;2022-10-22T03:19:28;14.80;99.90
736;DHT22;352;48.626;9.238;2022-10-22T03:21:57;14.80;99.90
736;DHT22;352;48.626;9.238;2022-10-22T03:24:29;14.80;99.90
736;DHT22;352;48.626;9.238;2022-10-22T03:26:56;14.80;99.90
736;DHT22;352;48.626;9.238;2022-10-22T03:29:25;14.80;99.90
736;DHT22;352;48.626;9.238;2022-10-22T03:31:52;14.80;99.90
736;DHT22;352;48.626;9.238;2022-10-22T03:34:19;14.80;99.90
736;DHT22;352;48.626;9.238;2022-10-22T03:36:46;14.80;99.90
736;DHT22;352;48.626;9.238;2022-10-22T03:39:14;14.70;99.90
736;DHT22;352;48.626;9.238;2022-10-22T03:41:44;14.70;99.90
736;DHT22;352;48.626;9.238;2022-10-22T03:44:12;14.70;99.90
736;DHT22;352;48.626;9.238;2022-10-22T03:46:39;14.70;99.90
736;DHT22;352;48.626;9.238;2022-10-22T03:49:06;14.70;99.90
736;DHT22;352;48.626;9.238;2022-10-22T03:51:33;14.80;99.90
736;DHT22;352;48.626;9.238;2022-10-22T03:54:00;14.80;99.90
736;DHT22;352;48.626;9.238;2022-10-22T03:56:27;14.80;99.90
736;DHT22;352;48.626;9.238;2022-10-22T03:58:56;14.80;99.90
736;DHT22;352;48.626;9.238;2022-10-22T04:01:24;14.80;99.90
736;DHT22;352;48.626;9.238;2022-10-22T04:03:51;14.80;99.90
736;DHT22;352;48.626;9.238;2022-10-22T04:06:18;14.80;99.90
736;DHT22;352;48.626;9.238;2022-10-22T04:08:45;14.80;99.90
736;DHT22;352;48.626;9.238;2022-10-22T04:11:13;14.80;99.90
736;DHT22;352;48.626;9.238;2022-10-22T04:13:41;14.80;99.90
736;DHT22;352;48.626;9.238;2022-10-22T04:16:11;14.70;99.90
736;DHT22;352;48.626;9.238;2022-10-22T04:18:39;14.70;99.90
736;DHT22;352;48.626;9.238;2022-10-22T04:21:07;14.70;99.90
736;DHT22;352;48.626;9.238;2022-10-22T04:23:34;14.70;99.90
736;DHT22;352;48.626;9.238;2022-10-22T04:26:03;14.70;99.90
736;DHT22;352;48.626;9.238;2022-10-22T04:28:30;14.60;99.90
736;DHT22;352;48.626;9.238;2022-10-22T04:30:56;14.70;99.90
736;DHT22;352;48.626;9.238;2022-10-22T04:33:24;14.60;99.90
736;DHT22;352;48.626;9.238;2022-10-22T04:35:51;14.60;99.90
736;DHT22;352;48.626;9.238;2022-10-22T04:38:18;14.60;99.90
736;DHT22;352;48.626;9.238;2022-10-22T04:40:45;14.60;99.90
736;DHT22;352;48.626;9.238;2022-10-22T04:43:11;14.60;99.90
736;DHT22;352;48.626;9.238;2022-10-22T04:45:38;14.50;99.90
736;DHT22;352;48.626;9.238;2022-10-22T04:48:05;14.60;99.90
736;DHT22;352;48.626;9.238;2022-10-22T04:50:34;14.50;99.90
736;DHT22;352;48.626;9.238;2022-10-22T04:53:01;14.60;99.90
736;DHT22;352;48.626;9.238;2022-10-22T04:55:28;14.60;99.90
736;DHT22;352;48.626;9.238;2022-10-22T04:57:54;14.60;99.90
736;DHT22;352;48.626;9.238;2022-10-22T05:00:21;14.50;99.90
736;DHT22;352;48.626;9.238;2022-10-22T05:02:49;14.50;99.90
736;DHT22;352;48.626;9.238;2022-10-22T05:05:16;14.50;99.90
736;DHT22;352;48.626;9.238;2022-10-22T05:07:44;14.50;99.90
736;DHT22;352;48.626;9.238;2022-10-22T05:10:10;14.50;99.90
736;DHT22;352;48.626;9.238;2022-10-22T05:12:37;14.50;99.90
736;DHT22;352;48.626;9.238;2022-10-22T05:15:05;14.40;99.90
736;DHT22;352;48.626;9.238;2022-10-22T05:17:34;14.50;99.90
736;DHT22;352;48.626;9.238;2022-10-22T05:20:02;14.50;99.90
736;DHT22;352;48.626;9.238;2022-10-22T05:22:28;14.40;99.90
736;DHT22;352;48.626;9.238;2022-10-22T05:24:57;14.40;99.90
736;DHT22;352;48.626;9.238;2022-10-22T05:27:24;14.40;99.90
736;DHT22;352;48.626;9.238;2022-10-22T05:29:51;14.40;99.90
736;DHT22;352;48.626;9.238;2022-10-22T05:32:18;14.40;99.90
736;DHT22;352;48.626;9.238;2022-10-22T05:34:44;14.40;99.90
736;DHT22;352;48.626;9.238;2022-10-22T05:37:11;14.30;99.90
736;DHT22;352;48.626;9.238;2022-10-22T05:39:38;14.30;99.90
736;DHT22;352;48.626;9.238;2022-10-22T05:42:07;14.30;99.90
736;DHT22;352;48.626;9.238;2022-10-22T05:44:34;14.30;99.90
736;DHT22;352;48.626;9.238;2022-10-22T05:47:01;14.40;99.90
736;DHT22;352;48.626;9.238;2022-10-22T05:49:27;14.40;99.90
736;DHT22;352;48.626;9.238;2022-10-22T05:51:54;14.40;99.90
736;DHT22;352;48.626;9.238;2022-10-22T05:54:21;14.40;99.90
736;DHT22;352;48.626;9.238;2022-10-22T05:56:48;14.40;99.90
736;DHT22;352;48.626;9.238;2022-10-22T05:59:16;14.50;99.90
736;DHT22;352;48.626;9.238;2022-10-22T06:01:48;14.40;99.90
736;DHT22;352;48.626;9.238;2022-10-22T06:04:25;14.40;99.90
736;DHT22;352;48.626;9.238;2022-10-22T06:06:55;14.50;99.90
736;DHT22;352;48.626;9.238;2022-10-22T06:09:25;14.50;99.90
736;DHT22;352;48.626;9.238;2022-10-22T06:11:54;14.50;99.90
736;DHT22;352;48.626;9.238;2022-10-22T06:14:23;14.50;99.90
736;DHT22;352;48.626;9.238;2022-10-22T06:16:50;14.50;99.90
736;DHT22;352;48.626;9.238;2022-10-22T06:19:25;14.50;99.90
736;DHT22;352;48.626;9.238;2022-10-22T06:21:57;14.60;99.90
736;DHT22;352;48.626;9.238;2022-10-22T06:24:27;14.60;99.90
736;DHT22;352;48.626;9.238;2022-10-22T06:26:54;14.60;99.90
736;DHT22;352;48.626;9.238;2022-10-22T06:29:22;14.60;99.90
736;DHT22;352;48.626;9.238;2022-10-22T06:31:49;14.70;99.90
736;DHT22;352;48.626;9.238;2022-10-22T06:34:16;14.70;99.90
736;DHT22;352;48.626;9.238;2022-10-22T06:36:44;14.70;99.90
736;DHT22;352;48.626;9.238;2022-10-22T06:39:12;14.70;99.90
736;DHT22;352;48.626;9.238;2022-10-22T06:41:40;14.70;99.90
736;DHT22;352;48.626;9.238;2022-10-22T06:44:08;14.80;99.90
736;DHT22;352;48.626;9.238;2022-10-22T06:46:39;14.80;99.90
736;DHT22;352;48.626;9.238;2022-10-22T06:49:09;14.80;99.90
736;DHT22;352;48.626;9.238;2022-10-22T06:51:40;14.90;99.90
736;DHT22;352;48.626;9.238;2022-10-22T06:54:10;14.90;99.90
736;DHT22;352;48.626;9.238;2022-10-22T06:56:43;14.90;99.90
736;DHT22;352;48.626;9.238;2022-10-22T06:59:10;14.90;99.90
736;DHT22;352;48.626;9.238;2022-10-22T07:01:38;15.00;99.90
736;DHT22;352;48.626;9.238;2022-10-22T07:04:09;15.00;99.90
736;DHT22;352;48.626;9.238;2022-10-22T07:06:36;15.00;99.90
736;DHT22;352;48.626;9.238;2022-10-22T07:09:03;15.00;99.90
736;DHT22;352;48.626;9.238;2022-10-22T07:11:35;15.00;99.90
736;DHT22;352;48.626;9.238;2022-10-22T07:14:03;15.10;99.90
736;DHT22;352;48.626;9.238;2022-10-22T07:16:36;15.20;99.90
736;DHT22;352;48.626;9.238;2022-10-22T07:19:05;15.20;99.90
736;DHT22;352;48.626;9.238;2022-10-22T07:21:32;15.20;99.90
736;DHT22;352;48.626;9.238;2022-10-22T07:24:32;15.20;99.90
736;DHT22;352;48.626;9.238;2022-10-22T07:27:06;15.30;99.90
736;DHT22;352;48.626;9.238;2022-10-22T07:29:38;15.30;99.90
736;DHT22;352;48.626;9.238;2022-10-22T07:32:07;15.30;99.90
736;DHT22;352;48.626;9.238;2022-10-22T07:34:36;15.30;99.90
736;DHT22;352;48.626;9.238;2022-10-22T07:37:02;15.40;99.90
736;DHT22;352;48.626;9.238;2022-10-22T07:39:30;15.40;99.90
736;DHT22;352;48.626;9.238;2022-10-22T07:42:01;15.40;99.90
736;DHT22;352;48.626;9.238;2022-10-22T07:44:29;15.60;99.90
736;DHT22;352;48.626;9.238;2022-10-22T07:46:56;15.60;99.90
736;DHT22;352;48.626;9.238;2022-10-22T07:49:24;15.70;99.90
736;DHT22;352;48.626;9.238;2022-10-22T07:52:02;15.80;99.90
736;DHT22;352;48.626;9.238;2022-10-22T07:54:40;15.80;99.90
736;DHT22;352;48.626;9.238;2022-10-22T08:00:31;16.00;99.90
736;DHT22;352;48.626;9.238;2022-10-22T08:03:08;16.10;99.90
736;DHT22;352;48.626;9.238;2022-10-22T08:05:39;16.20;99.90
736;DHT22;352;48.626;9.238;2022-10-22T08:08:09;16.20;99.90
736;DHT22;352;48.626;9.238;2022-10-22T08:10:37;16.30;99.90
736;DHT22;352;48.626;9.238;2022-10-22T08:13:04;16.10;99.90
736;DHT22;352;48.626;9.238;2022-10-22T08:15:34;16.20;99.90
736;DHT22;352;48.626;9.238;2022-10-22T08:18:19;16.10;99.90
736;DHT22;352;48.626;9.238;2022-10-22T08:21:35;16.10;99.90
736;DHT22;352;48.626;9.238;2022-10-22T08:24:44;16.30;99.90
736;DHT22;352;48.626;9.238;2022-10-22T08:27:15;16.80;99.90
736;DHT22;352;48.626;9.238;2022-10-22T08:29:44;17.10;99.90
736;DHT22;352;48.626;9.238;2022-10-22T08:32:17;17.20;99.90
736;DHT22;352;48.626;9.238;2022-10-22T08:34:46;17.30;99.90
736;DHT22;352;48.626;9.238;2022-10-22T08:37:58;17.40;99.90
736;DHT22;352;48.626;9.238;2022-10-22T08:41:09;17.70;99.90
736;DHT22;352;48.626;9.238;2022-10-22T08:57:43;18.90;99.90
736;DHT22;352;48.626;9.238;2022-10-22T09:00:39;19.00;99.90
736;DHT22;352;48.626;9.238;2022-10-22T09:03:30;19.30;99.90
736;DHT22;352;48.626;9.238;2022-10-22T09:06:10;19.80;99.90
736;DHT22;352;48.626;9.238;2022-10-22T09:08:38;20.50;99.90
736;DHT22;352;48.626;9.238;2022-10-22T09:11:14;21.60;99.90
736;DHT22;352;48.626;9.238;2022-10-22T09:13:45;23.60;99.90
736;DHT22;352;48.626;9.238;2022-10-22T09:16:16;25.30;99.20
736;DHT22;352;48.626;9.238;2022-10-22T09:18:51;27.00;95.60
736;DHT22;352;48.626;9.238;2022-10-22T09:21:28;28.20;91.50
736;DHT22;352;48.626;9.238;2022-10-22T09:24:04;29.00;90.90
736;DHT22;352;48.626;9.238;2022-10-22T09:26:34;29.50;85.50
736;DHT22;352;48.626;9.238;2022-10-22T09:29:04;30.60;83.80
736;DHT22;352;48.626;9.238;2022-10-22T09:31:32;31.00;80.60
736;DHT22;352;48.626;9.238;2022-10-22T09:33:59;30.80;78.30
736;DHT22;352;48.626;9.238;2022-10-22T09:36:31;31.40;76.70
736;DHT22;352;48.626;9.238;2022-10-22T09:38:58;31.70;76.20
736;DHT22;352;48.626;9.238;2022-10-22T09:41:27;32.50;73.20
736;DHT22;352;48.626;9.238;2022-10-22T09:43:55;32.90;69.90
736;DHT22;352;48.626;9.238;2022-10-22T09:46:27;33.40;68.00
736;DHT22;352;48.626;9.238;2022-10-22T09:49:00;34.00;65.50
736;DHT22;352;48.626;9.238;2022-10-22T09:51:36;34.00;63.40
736;DHT22;352;48.626;9.238;2022-10-22T09:54:14;33.70;62.50
736;DHT22;352;48.626;9.238;2022-10-22T09:56:42;33.00;62.10
736;DHT22;352;48.626;9.238;2022-10-22T09:59:14;33.10;65.10
736;DHT22;352;48.626;9.238;2022-10-22T10:01:43;33.00;62.70
736;DHT22;352;48.626;9.238;2022-10-22T10:04:11;33.30;63.50
736;DHT22;352;48.626;9.238;2022-10-22T10:06:40;33.50;60.80
736;DHT22;352;48.626;9.238;2022-10-22T10:09:13;32.70;61.70
736;DHT22;352;48.626;9.238;2022-10-22T10:11:44;32.40;63.60
736;DHT22;352;48.626;9.238;2022-10-22T10:14:16;32.40;63.60
736;DHT22;352;48.626;9.238;2022-10-22T10:16:54;31.70;63.60
736;DHT22;352;48.626;9.238;2022-10-22T10:19:33;31.10;64.80
736;DHT22;352;48.626;9.238;2022-10-22T10:22:09;30.00;69.40
736;DHT22;352;48.626;9.238;2022-10-22T10:24:50;29.00;72.20
736;DHT22;352;48.626;9.238;2022-10-22T10:27:23;27.70;75.00
736;DHT22;352;48.626;9.238;2022-10-22T10:29:55;26.70;79.30
736;DHT22;352;48.626;9.238;2022-10-22T10:32:42;25.90;85.30
736;DHT22;352;48.626;9.238;2022-10-22T10:35:19;25.40;86.50
736;DHT22;352;48.626;9.238;2022-10-22T10:38:00;25.00;88.20
736;DHT22;352;48.626;9.238;2022-10-22T10:40:36;24.70;90.50
736;DHT22;352;48.626;9.238;2022-10-22T10:43:09;24.30;90.80
736;DHT22;352;48.626;9.238;2022-10-22T10:45:41;24.10;92.70
736;DHT22;352;48.626;9.238;2022-10-22T10:51:19;23.40;92.90
736;DHT22;352;48.626;9.238;2022-10-22T10:54:03;23.20;94.30
736;DHT22;352;48.626;9.238;2022-10-22T10:56:38;23.00;94.60
736;DHT22;352;48.626;9.238;2022-10-22T10:59:15;22.70;94.50
736;DHT22;352;48.626;9.238;2022-10-22T11:01:52;22.60;95.70
736;DHT22;352;48.626;9.238;2022-10-22T11:04:40;22.50;95.10
736;DHT22;352;48.626;9.238;2022-10-22T11:07:14;22.30;95.60
736;DHT22;352;48.626;9.238;2022-10-22T11:09:47;22.10;96.10
736;DHT22;352;48.626;9.238;2022-10-22T11:12:19;22.20;98.20
736;DHT22;352;48.626;9.238;2022-10-22T11:14:55;22.30;97.60
736;DHT22;352;48.626;9.238;2022-10-22T11:17:28;22.20;96.80
736;DHT22;352;48.626;9.238;2022-10-22T11:20:03;22.20;97.90
736;DHT22;352;48.626;9.238;2022-10-22T11:22:34;22.00;97.10
736;DHT22;352;48.626;9.238;2022-10-22T11:25:11;22.00;97.40
736;DHT22;352;48.626;9.238;2022-10-22T11:27:42;22.10;99.00
736;DHT22;352;48.626;9.238;2022-10-22T11:30:13;22.20;99.50
736;DHT22;352;48.626;9.238;2022-10-22T11:32:42;22.30;98.40
736;DHT22;352;48.626;9.238;2022-10-22T11:35:15;22.30;96.70
736;DHT22;352;48.626;9.238;2022-10-22T11:37:44;22.30;97.80
736;DHT22;352;48.626;9.238;2022-10-22T11:40:16;22.30;98.20
736;DHT22;352;48.626;9.238;2022-10-22T11:42:47;22.30;96.80
736;DHT22;352;48.626;9.238;2022-10-22T11:45:29;22.30;97.40
736;DHT22;352;48.626;9.238;2022-10-22T11:48:06;22.40;97.40
736;DHT22;352;48.626;9.238;2022-10-22T11:50:48;22.40;98.60
736;DHT22;352;48.626;9.238;2022-10-22T11:53:20;22.30;98.60
736;DHT22;352;48.626;9.238;2022-10-22T11:55:53;22.30;98.90
736;DHT22;352;48.626;9.238;2022-10-22T11:58:30;22.20;98.60
736;DHT22;352;48.626;9.238;2022-10-22T12:01:25;22.20;97.80
736;DHT22;352;48.626;9.238;2022-10-22T12:04:16;22.20;96.60
736;DHT22;352;48.626;9.238;2022-10-22T12:06:59;22.20;97.90
736;DHT22;352;48.626;9.238;2022-10-22T12:09:27;22.20;98.70
736;DHT22;352;48.626;9.238;2022-10-22T12:12:03;22.30;97.20
736;DHT22;352;48.626;9.238;2022-10-22T12:14:33;22.20;97.40
736;DHT22;352;48.626;9.238;2022-10-22T12:17:04;22.10;97.10
736;DHT22;352;48.626;9.238;2022-10-22T12:19:37;22.10;97.90
736;DHT22;352;48.626;9.238;2022-10-22T12:22:13;22.00;96.70
736;DHT22;352;48.626;9.238;2022-10-22T12:24:43;22.00;98.90
736;DHT22;352;48.626;9.238;2022-10-22T12:27:17;22.10;96.80
736;DHT22;352;48.626;9.238;2022-10-22T12:29:43;22.10;95.70
736;DHT22;352;48.626;9.238;2022-10-22T12:32:13;22.10;95.50
736;DHT22;352;48.626;9.238;2022-10-22T12:34:45;22.10;95.60
736;DHT22;352;48.626;9.238;2022-10-22T12:37:14;22.10;95.00
736;DHT22;352;48.626;9.238;2022-10-22T12:39:41;22.10;95.00
736;DHT22;352;48.626;9.238;2022-10-22T12:42:12;22.10;95.40
736;DHT22;352;48.626;9.238;2022-10-22T12:44:39;22.10;96.20
736;DHT22;352;48.626;9.238;2022-10-22T12:47:06;22.00;96.70
736;DHT22;352;48.626;9.238;2022-10-22T12:49:37;22.00;97.00
736;DHT22;352;48.626;9.238;2022-10-22T12:52:06;21.90;95.50
736;DHT22;352;48.626;9.238;2022-10-22T12:54:38;22.00;95.80
736;DHT22;352;48.626;9.238;2022-10-22T12:57:10;21.90;95.10
736;DHT22;352;48.626;9.238;2022-10-22T12:59:38;22.00;98.10
736;DHT22;352;48.626;9.238;2022-10-22T13:02:16;22.00;98.50
736;DHT22;352;48.626;9.238;2022-10-22T13:05:13;22.10;97.90
736;DHT22;352;48.626;9.238;2022-10-22T13:07:41;22.00;97.10
736;DHT22;352;48.626;9.238;2022-10-22T13:10:18;22.00;96.00
736;DHT22;352;48.626;9.238;2022-10-22T13:12:49;22.00;96.50
736;DHT22;352;48.626;9.238;2022-10-22T13:15:36;22.00;93.10
736;DHT22;352;48.626;9.238;2022-10-22T13:18:12;22.00;92.80
736;DHT22;352;48.626;9.238;2022-10-22T13:20:50;21.90;91.80
736;DHT22;352;48.626;9.238;2022-10-22T13:23:18;21.80;92.00
736;DHT22;352;48.626;9.238;2022-10-22T13:25:58;21.80;91.30
736;DHT22;352;48.626;9.238;2022-10-22T13:28:26;21.70;93.40
736;DHT22;352;48.626;9.238;2022-10-22T13:30:55;21.60;92.60
736;DHT22;352;48.626;9.238;2022-10-22T13:33:23;21.60;93.90
736;DHT22;352;48.626;9.238;2022-10-22T13:35:52;21.60;94.50
736;DHT22;352;48.626;9.238;2022-10-22T13:38:22;21.60;95.50
736;DHT22;352;48.626;9.238;2022-10-22T13:40:49;21.60;95.20
736;DHT22;352;48.626;9.238;2022-10-22T13:43:18;21.60;97.40
736;DHT22;352;48.626;9.238;2022-10-22T13:45:46;21.60;94.90
736;DHT22;352;48.626;9.238;2022-10-22T13:48:14;21.60;94.50
736;DHT22;352;48.626;9.238;2022-10-22T13:50:43;21.60;95.80
736;DHT22;352;48.626;9.238;2022-10-22T13:53:15;21.60;98.30
736;DHT22;352;48.626;9.238;2022-10-22T13:55:43;21.60;95.10
736;DHT22;352;48.626;9.238;2022-10-22T13:58:12;21.60;94.70
736;DHT22;352;48.626;9.238;2022-10-22T14:00:49;21.60;96.30
736;DHT22;352;48.626;9.238;2022-10-22T14:03:18;21.60;94.40
736;DHT22;352;48.626;9.238;2022-10-22T14:05:46;21.50;94.40
736;DHT22;352;48.626;9.238;2022-10-22T14:08:15;21.50;97.70
736;DHT22;352;48.626;9.238;2022-10-22T14:10:43;21.40;96.10
736;DHT22;352;48.626;9.238;2022-10-22T14:13:11;21.30;93.80
736;DHT22;352;48.626;9.238;2022-10-22T14:15:38;21.20;93.70
736;DHT22;352;48.626;9.238;2022-10-22T14:18:07;21.20;95.40
736;DHT22;352;48.626;9.238;2022-10-22T14:20:39;21.10;96.80
736;DHT22;352;48.626;9.238;2022-10-22T14:23:12;21.10;96.00
736;DHT22;352;48.626;9.238;2022-10-22T14:25:39;21.10;96.80
736;DHT22;352;48.626;9.238;2022-10-22T14:28:07;21.00;95.90
736;DHT22;352;48.626;9.238;2022-10-22T14:30:34;21.00;97.60
736;DHT22;352;48.626;9.238;2022-10-22T14:33:01;21.00;99.00
736;DHT22;352;48.626;9.238;2022-10-22T14:35:34;21.00;99.40
736;DHT22;352;48.626;9.238;2022-10-22T14:38:01;20.80;96.10
736;DHT22;352;48.626;9.238;2022-10-22T14:40:27;20.80;96.00
736;DHT22;352;48.626;9.238;2022-10-22T14:42:55;20.80;98.10
736;DHT22;352;48.626;9.238;2022-10-22T14:45:24;20.70;96.20
736;DHT22;352;48.626;9.238;2022-10-22T14:47:51;20.70;97.80
736;DHT22;352;48.626;9.238;2022-10-22T14:50:19;20.70;98.60
736;DHT22;352;48.626;9.238;2022-10-22T14:52:47;20.60;98.90
736;DHT22;352;48.626;9.238;2022-10-22T14:55:15;20.50;97.90
736;DHT22;352;48.626;9.238;2022-10-22T14:57:43;20.50;96.80
736;DHT22;352;48.626;9.238;2022-10-22T15:00:12;20.50;99.10
736;DHT22;352;48.626;9.238;2022-10-22T15:02:39;20.50;98.00
736;DHT22;352;48.626;9.238;2022-10-22T15:05:08;20.50;96.90
736;DHT22;352;48.626;9.238;2022-10-22T15:07:35;20.40;97.80
736;DHT22;352;48.626;9.238;2022-10-22T15:10:05;20.40;96.20
736;DHT22;352;48.626;9.238;2022-10-22T15:12:32;20.30;98.70
736;DHT22;352;48.626;9.238;2022-10-22T15:14:58;20.30;99.90
736;DHT22;352;48.626;9.238;2022-10-22T15:17:25;20.20;99.50
736;DHT22;352;48.626;9.238;2022-10-22T15:19:53;20.10;99.90
736;DHT22;352;48.626;9.238;2022-10-22T15:22:21;20.00;99.40
736;DHT22;352;48.626;9.238;2022-10-22T15:24:48;20.00;99.90
736;DHT22;352;48.626;9.238;2022-10-22T15:27:16;19.90;99.90
736;DHT22;352;48.626;9.238;2022-10-22T15:29:42;19.90;99.90
736;DHT22;352;48.626;9.238;2022-10-22T15:32:09;19.80;99.90
736;DHT22;352;48.626;9.238;2022-10-22T15:34:37;19.80;99.90
736;DHT22;352;48.626;9.238;2022-10-22T15:37:07;19.80;99.90
736;DHT22;352;48.626;9.238;2022-10-22T15:39:34;19.70;99.90
736;DHT22;352;48.626;9.238;2022-10-22T15:42:04;19.60;99.90
736;DHT22;352;48.626;9.238;2022-10-22T15:44:32;19.50;99.90
736;DHT22;352;48.626;9.238;2022-10-22T15:47:01;19.50;99.90
736;DHT22;352;48.626;9.238;2022-10-22T15:49:29;19.50;99.90
736;DHT22;352;48.626;9.238;2022-10-22T15:51:56;19.40;99.90
736;DHT22;352;48.626;9.238;2022-10-22T15:54:27;19.30;99.90
736;DHT22;352;48.626;9.238;2022-10-22T15:56:55;19.20;99.90
736;DHT22;352;48.626;9.238;2022-10-22T15:59:23;19.20;99.90
736;DHT22;352;48.626;9.238;2022-10-22T16:01:51;19.10;99.90
736;DHT22;352;48.626;9.238;2022-10-22T16:04:18;19.00;99.90
736;DHT22;352;48.626;9.238;2022-10-22T16:06:47;18.90;99.90
736;DHT22;352;48.626;9.238;2022-10-22T16:09:16;18.80;99.90
736;DHT22;352;48.626;9.238;2022-10-22T16:11:43;18.70;99.90
736;DHT22;352;48.626;9.238;2022-10-22T16:14:11;18.60;99.90
736;DHT22;352;48.626;9.238;2022-10-22T16:16:41;18.50;99.90
736;DHT22;352;48.626;9.238;2022-10-22T16:19:11;18.40;99.90
736;DHT22;352;48.626;9.238;2022-10-22T16:21:38;18.30;99.90
736;DHT22;352;48.626;9.238;2022-10-22T16:24:06;18.20;99.90
736;DHT22;352;48.626;9.238;2022-10-22T16:26:33;18.10;99.90
736;DHT22;352;48.626;9.238;2022-10-22T16:29:00;18.10;99.90
736;DHT22;352;48.626;9.238;2022-10-22T16:31:27;18.00;99.90
736;DHT22;352;48.626;9.238;2022-10-22T16:33:54;17.90;99.90
736;DHT22;352;48.626;9.238;2022-10-22T16:36:22;17.90;99.90
736;DHT22;352;48.626;9.238;2022-10-22T16:38:49;17.80;99.90
736;DHT22;352;48.626;9.238;2022-10-22T16:41:17;17.70;99.90
736;DHT22;352;48.626;9.238;2022-10-22T16:43:46;17.60;99.90
736;DHT22;352;48.626;9.238;2022-10-22T16:46:14;17.50;99.90
736;DHT22;352;48.626;9.238;2022-10-22T16:48:44;17.50;99.90
736;DHT22;352;48.626;9.238;2022-10-22T16:51:12;17.50;99.90
736;DHT22;352;48.626;9.238;2022-10-22T16:53:41;17.40;99.90
736;DHT22;352;48.626;9.238;2022-10-22T16:56:09;17.30;99.90
736;DHT22;352;48.626;9.238;2022-10-22T16:58:36;17.30;99.90
736;DHT22;352;48.626;9.238;2022-10-22T17:01:05;17.20;99.90
736;DHT22;352;48.626;9.238;2022-10-22T17:03:31;17.20;99.90
736;DHT22;352;48.626;9.238;2022-10-22T17:05:58;17.10;99.90
736;DHT22;352;48.626;9.238;2022-10-22T17:08:25;17.10;99.90
736;DHT22;352;48.626;9.238;2022-10-22T17:10:53;17.00;99.90
736;DHT22;352;48.626;9.238;2022-10-22T17:13:20;17.00;99.90
736;DHT22;352;48.626;9.238;2022-10-22T17:15:47;16.90;99.90
736;DHT22;352;48.626;9.238;2022-10-22T17:18:14;16.90;99.90
736;DHT22;352;48.626;9.238;2022-10-22T17:20:41;16.80;99.90